Mount Zion, Indiana
Current Conditions -  °F | °C
As of 10:55 PM on Saturday 25 Oct 2014 (Local Time) from KMZZ Reporting Station
Clear Clear  
Wind Chill: 55°   Ceiling: Unl
Heat Index: 55°   Visibility: 7mi
Dew Point: 37°   Wind: 9mph
Humidity: 50%   Direction: 300°WNW
Pressure: 29.94"   Gusts: NA
Location:  40.6897°N, 85.3916°W
Report Text: KMZZ 260255Z AUTO 30008KT 7SM CLR 13/03 A2994 RMK AO2 T01290028
Loading
Personal Weather Stations






























Interactive Weather Map
Tropical Storm Tracking
New forecast layout! Learn more

10-Day Weather Forecast

Advertisements
Track Severe Weather on mobile